createdAt,value
2023-02-11T00:03:46.649Z,7.30
2023-02-11T00:08:48.247Z,6.32
2023-02-11T00:13:49.722Z,6.50
2023-02-11T00:18:52.941Z,6.60
2023-02-11T00:23:57.016Z,6.90
2023-02-11T00:28:58.537Z,6.20
2023-02-11T00:33:59.997Z,7.72
2023-02-11T00:39:01.493Z,7.03
2023-02-11T00:44:03.049Z,5.95
2023-02-11T00:49:04.555Z,7.32
2023-02-11T00:54:06.117Z,6.15
2023-02-11T00:59:07.619Z,6.65
2023-02-11T01:04:09.080Z,7.50
2023-02-11T01:09:10.543Z,7.63
2023-02-11T01:14:12.010Z,6.72
2023-02-11T01:19:13.474Z,5.82
2023-02-11T01:24:14.932Z,6.30
2023-02-11T01:29:16.421Z,7.07
2023-02-11T01:34:17.935Z,6.55
2023-02-11T01:39:19.449Z,7.18
2023-02-11T01:44:40.158Z,5.57
2023-02-11T01:49:44.223Z,5.60
2023-02-11T01:55:12.149Z,5.93
2023-02-11T02:00:16.535Z,6.38
2023-02-11T02:05:57.653Z,5.30
2023-02-11T02:11:00.876Z,5.55
2023-02-11T02:16:04.312Z,7.03
2023-02-11T02:21:43.135Z,5.57
2023-02-11T02:26:59.882Z,6.25
2023-02-11T02:32:26.165Z,5.95
2023-02-11T02:37:43.496Z,6.90
2023-02-11T02:42:45.012Z,7.15
2023-02-11T02:47:46.504Z,6.88
2023-02-11T02:53:08.302Z,8.70
2023-02-11T02:58:47.398Z,8.60
2023-02-11T03:03:59.383Z,6.90
2023-02-11T03:09:09.654Z,8.10
2023-02-11T03:14:13.730Z,6.95
2023-02-11T03:19:19.568Z,7.18
2023-02-11T03:24:26.208Z,7.03
2023-02-11T03:29:41.246Z,7.57
2023-02-11T03:34:47.220Z,9.05
2023-02-11T03:39:54.880Z,7.50
2023-02-11T03:45:19.849Z,7.57
2023-02-11T03:50:21.448Z,7.60
2023-02-11T03:55:23.058Z,8.05
2023-02-11T04:00:31.708Z,9.18
2023-02-11T04:05:33.206Z,7.88
2023-02-11T04:10:34.714Z,7.68
2023-02-11T04:15:36.217Z,7.22
2023-02-11T04:20:37.696Z,7.93
2023-02-11T04:25:40.249Z,7.32
2023-02-11T04:30:41.748Z,7.25
2023-02-11T04:35:43.231Z,6.85
2023-02-11T04:40:44.718Z,7.60
2023-02-11T04:45:46.202Z,7.10
2023-02-11T04:50:47.675Z,7.25
2023-02-11T04:55:50.846Z,7.60
2023-02-11T05:00:52.770Z,7.20
2023-02-11T05:05:55.365Z,7.18
2023-02-11T05:10:56.906Z,7.05
2023-02-11T05:15:58.409Z,6.68
2023-02-11T05:20:59.891Z,5.85
2023-02-11T05:26:01.970Z,6.40
2023-02-11T05:31:03.623Z,4.85
2023-02-11T05:36:09.230Z,6.25
2023-02-11T05:41:10.842Z,5.78
2023-02-11T05:46:18.879Z,6.05
2023-02-11T05:51:20.395Z,4.82
2023-02-11T05:56:21.889Z,5.65
2023-02-11T06:01:23.355Z,5.97
2023-02-11T06:06:25.182Z,5.45
2023-02-11T06:11:26.724Z,7.07
2023-02-11T06:16:28.322Z,4.72
2023-02-11T06:21:42.762Z,4.80
2023-02-11T06:26:45.168Z,4.15
2023-02-11T06:31:46.875Z,4.78
2023-02-11T06:36:48.383Z,6.53
2023-02-11T06:41:49.847Z,3.65
2023-02-11T06:46:51.405Z,3.88
2023-02-11T06:51:52.922Z,3.65
2023-02-11T06:56:54.383Z,5.88
2023-02-11T07:01:55.888Z,3.80
2023-02-11T07:06:57.415Z,3.70
2023-02-11T07:11:58.870Z,4.80
2023-02-11T07:17:00.327Z,4.20
2023-02-11T07:22:01.788Z,4.25
2023-02-11T07:27:03.270Z,4.78
2023-02-11T07:32:05.490Z,3.83
2023-02-11T07:37:07.285Z,4.50
2023-02-11T07:42:08.904Z,3.80
2023-02-11T07:47:10.403Z,4.90
2023-02-11T07:52:11.866Z,3.28
2023-02-11T07:57:13.346Z,4.68
2023-02-11T08:02:14.890Z,4.63
2023-02-11T08:07:19.206Z,4.55
2023-02-11T08:12:20.698Z,3.42
2023-02-11T08:17:22.167Z,3.45
2023-02-11T08:22:23.646Z,4.45
2023-02-11T08:27:26.433Z,4.75
2023-02-11T08:32:27.911Z,4.28
2023-02-11T08:37:31.411Z,4.63
2023-02-11T08:42:34.558Z,3.80
2023-02-11T08:47:36.810Z,4.80
2023-02-11T08:52:38.296Z,4.20
2023-02-11T08:57:39.775Z,4.40
2023-02-11T09:02:41.281Z,4.57
2023-02-11T09:07:42.774Z,4.38
2023-02-11T09:12:44.241Z,5.95
2023-02-11T09:17:45.711Z,4.35
2023-02-11T09:22:47.188Z,5.32
2023-02-11T09:27:48.658Z,4.07
2023-02-11T09:32:50.152Z,3.92
2023-02-11T09:37:51.638Z,4.55
2023-02-11T09:43:06.607Z,5.05
2023-02-11T09:48:18.586Z,3.58
2023-02-11T09:53:27.039Z,5.65
2023-02-11T09:58:30.272Z,7.47
2023-02-11T10:03:56.235Z,3.83
2023-02-11T10:09:13.966Z,4.72
2023-02-11T10:14:40.407Z,4.13
2023-02-11T10:19:56.586Z,4.45
2023-02-11T10:25:00.075Z,3.47
2023-02-11T10:30:09.762Z,3.97
2023-02-11T10:35:21.950Z,4.60
2023-02-11T10:40:28.283Z,4.75
2023-02-11T10:45:38.974Z,5.43
2023-02-11T10:50:40.443Z,4.90
2023-02-11T10:55:49.758Z,4.72
2023-02-11T11:00:52.951Z,4.72
2023-02-11T11:06:30.642Z,4.25
2023-02-11T11:11:32.168Z,4.00
2023-02-11T11:16:34.397Z,4.85
2023-02-11T11:21:40.413Z,5.32
2023-02-11T11:26:46.590Z,4.55
2023-02-11T11:31:53.996Z,3.95
2023-02-11T11:36:56.165Z,5.07
2023-02-11T11:42:07.957Z,5.82
2023-02-11T11:47:12.047Z,4.32
2023-02-11T11:52:32.748Z,5.45
2023-02-11T11:57:35.610Z,4.95
2023-02-11T12:03:35.656Z,5.32
2023-02-11T12:09:07.760Z,5.20
2023-02-11T12:14:18.062Z,6.78
2023-02-11T12:19:37.906Z,5.47
2023-02-11T12:24:57.185Z,4.72
2023-02-11T12:30:09.200Z,5.47
2023-02-11T12:35:28.693Z,4.82
2023-02-11T12:40:46.528Z,4.95
2023-02-11T12:45:59.208Z,4.70
2023-02-11T12:51:01.799Z,4.70
2023-02-11T12:56:15.453Z,5.88
2023-02-11T13:01:20.556Z,5.05
2023-02-11T13:06:31.131Z,4.75
2023-02-11T13:11:42.901Z,5.05
2023-02-11T13:16:48.989Z,4.32
2023-02-11T13:22:14.275Z,5.35
2023-02-11T13:27:27.509Z,12.20
2023-02-11T13:32:29.453Z,6.40
2023-02-11T13:37:35.385Z,3.70
2023-02-11T13:42:56.493Z,4.10
2023-02-11T13:47:58.760Z,4.30
2023-02-11T13:53:01.148Z,4.28
2023-02-11T13:58:08.372Z,4.20
2023-02-11T14:03:31.250Z,4.32
2023-02-11T14:08:51.395Z,4.38
2023-02-11T14:13:52.741Z,5.82
2023-02-11T14:18:54.032Z,4.35
2023-02-11T14:24:01.256Z,3.75
2023-02-11T14:29:26.361Z,4.93
2023-02-11T14:34:39.699Z,5.07
2023-02-11T14:39:49.529Z,3.63
2023-02-11T14:44:51.015Z,5.05
2023-02-11T14:49:52.625Z,4.30
2023-02-11T14:55:14.756Z,4.47
2023-02-11T15:00:21.297Z,4.28
2023-02-11T15:05:27.372Z,5.38
2023-02-11T15:10:36.698Z,5.07
2023-02-11T15:15:40.519Z,4.55
2023-02-11T15:20:42.021Z,3.60
2023-02-11T15:25:45.690Z,3.88
2023-02-11T15:30:47.218Z,4.05
2023-02-11T15:35:48.870Z,4.95
2023-02-11T15:41:01.428Z,3.63
2023-02-11T15:46:02.956Z,3.55
2023-02-11T15:51:23.130Z,3.80
2023-02-11T15:56:43.065Z,4.97
2023-02-11T16:01:45.436Z,4.28
2023-02-11T16:06:50.882Z,4.80
2023-02-11T16:11:52.188Z,4.00
2023-02-11T16:16:55.500Z,3.85
2023-02-11T16:21:57.472Z,3.13
2023-02-11T16:27:00.480Z,4.53
2023-02-11T16:32:19.634Z,5.50
2023-02-11T16:37:21.103Z,5.07
2023-02-11T16:42:23.247Z,4.78
2023-02-11T16:47:26.750Z,4.35
2023-02-11T16:52:30.534Z,4.28
2023-02-11T16:57:32.134Z,3.97
2023-02-11T17:02:34.507Z,4.00
2023-02-11T17:07:36.099Z,4.70
2023-02-11T17:12:37.570Z,4.82
2023-02-11T17:17:39.034Z,4.80
2023-02-11T17:22:40.581Z,3.20
2023-02-11T17:27:42.106Z,4.38
2023-02-11T17:32:43.653Z,3.88
2023-02-11T17:37:45.131Z,3.83
2023-02-11T17:42:46.598Z,4.10
2023-02-11T17:47:49.215Z,5.05
2023-02-11T17:52:50.725Z,3.75
2023-02-11T17:57:52.212Z,5.03
2023-02-11T18:02:56.495Z,5.38
2023-02-11T18:07:58.996Z,4.20
2023-02-11T18:13:01.181Z,7.13
2023-02-11T18:18:02.649Z,4.97
2023-02-11T18:23:04.134Z,5.90
2023-02-11T18:28:05.665Z,3.85
2023-02-11T18:33:11.908Z,5.30
2023-02-11T18:38:13.406Z,4.47
2023-02-11T18:43:14.876Z,6.03
2023-02-11T18:48:16.936Z,5.03
2023-02-11T18:53:18.415Z,6.40
2023-02-11T18:58:21.252Z,6.70
2023-02-11T19:03:22.779Z,6.25
2023-02-11T19:08:24.251Z,6.55
2023-02-11T19:13:25.896Z,6.68
2023-02-11T19:18:27.381Z,5.20
2023-02-11T19:23:28.848Z,5.78
2023-02-11T19:28:31.509Z,4.10
2023-02-11T19:33:33.047Z,5.25
2023-02-11T19:38:34.583Z,4.90
2023-02-11T19:43:36.170Z,3.92
2023-02-11T19:48:38.028Z,5.35
2023-02-11T19:53:39.504Z,2.88
2023-02-11T19:58:41.078Z,4.40
2023-02-11T20:03:42.846Z,5.10
2023-02-11T20:08:44.352Z,3.92
2023-02-11T20:13:45.877Z,4.40
2023-02-11T20:18:48.025Z,4.03
2023-02-11T20:23:50.038Z,4.82
2023-02-11T20:28:51.978Z,3.92
2023-02-11T20:33:53.461Z,3.63
2023-02-11T20:38:55.153Z,5.75
2023-02-11T20:43:58.450Z,2.70
2023-02-11T20:48:59.960Z,2.40
2023-02-11T20:54:01.435Z,4.50
2023-02-11T20:59:03.778Z,2.15
2023-02-11T21:04:07.173Z,3.45
2023-02-11T21:09:09.192Z,2.03
2023-02-11T21:14:11.019Z,2.35
2023-02-11T21:19:12.600Z,1.90
2023-02-11T21:24:14.089Z,2.83
2023-02-11T21:29:15.576Z,2.35
2023-02-11T21:34:17.314Z,2.03
2023-02-11T21:39:19.291Z,2.13
2023-02-11T21:44:20.802Z,2.47
2023-02-11T21:49:22.281Z,3.38
2023-02-11T21:54:25.735Z,2.97
2023-02-11T21:59:29.218Z,4.05
2023-02-11T22:04:30.958Z,4.05
2023-02-11T22:09:32.496Z,2.75
2023-02-11T22:14:34.784Z,3.22
2023-02-11T22:19:36.253Z,2.47
2023-02-11T22:24:37.730Z,3.30
2023-02-11T22:29:39.239Z,3.33
2023-02-11T22:34:40.712Z,3.00
2023-02-11T22:39:42.699Z,3.38
2023-02-11T22:44:44.230Z,3.60
2023-02-11T22:49:45.689Z,3.03
2023-02-11T22:54:50.765Z,3.33
2023-02-11T22:59:52.227Z,2.97
2023-02-11T23:04:53.721Z,2.78
2023-02-11T23:09:55.183Z,2.72
2023-02-11T23:14:56.639Z,2.70
2023-02-11T23:19:58.107Z,3.40
2023-02-11T23:24:59.633Z,2.90
2023-02-11T23:30:01.334Z,3.03
2023-02-11T23:35:02.795Z,2.92
2023-02-11T23:40:04.350Z,4.80
2023-02-11T23:45:06.722Z,2.92
2023-02-11T23:50:08.832Z,3.38
2023-02-11T23:55:10.287Z,3.75
